Time;durP1;ratioP1;P1;durP2;ratioP2;P2;SDS_P1;SDS_P2;PMS_P1;PMS_P2;Temp;Humidity;BMP_temperature;BMP_pressure;BME280_temperature;BME280_humidity;BME280_pressure;Samples;Min_cycle;Max_cycle;Signal;HPM_P1;HPM_P2
2022/05/13 00:02:11;;;;;;;8.32;1.73;;;;;;;-149.78;100.00;50193.72;5134533;27;20122;-71
2022/05/13 00:04:38;;;;;;;5.43;1.63;;;;;;;-149.78;100.00;50201.56;5135350;27;20070;-71
2022/05/13 00:07:04;;;;;;;3.88;1.30;;;;;;;-149.78;100.00;50150.72;5116351;27;20035;-71
2022/05/13 00:12:15;;;;;;;7.22;1.80;;;;;;;-149.78;100.00;50189.81;5098587;27;20038;-71
2022/05/13 00:14:42;;;;;;;9.20;2.00;;;;;;;-149.78;100.00;50197.66;5135167;27;20451;-71
2022/05/13 00:17:08;;;;;;;9.05;1.75;;;;;;;-149.78;100.00;50197.66;5134762;27;20034;-71
2022/05/13 00:19:34;;;;;;;4.22;1.45;;;;;;;-149.78;100.00;50183.97;5134955;27;20378;-71
2022/05/13 00:22:00;;;;;;;8.52;2.30;;;;;;;-149.78;100.00;50170.25;5134901;27;20038;-71
2022/05/13 00:24:26;;;;;;;7.35;1.60;;;;;;;-149.78;100.00;50189.81;5134842;27;20043;-71
2022/05/13 00:26:52;;;;;;;6.28;1.95;;;;;;;-149.78;100.00;50189.81;5134781;27;20401;-71
2022/05/13 00:29:18;;;;;;;6.55;1.40;;;;;;;-149.78;100.00;50189.81;5134921;27;20034;-71
2022/05/13 00:31:43;;;;;;;5.80;2.08;;;;;;;-149.78;100.00;50207.44;5116043;27;20039;-71
2022/05/13 00:34:09;;;;;;;8.30;1.77;;;;;;;-149.78;100.00;50189.81;5116309;27;20039;-71
2022/05/13 00:36:38;;;;;;;10.00;2.20;;;;;;;-149.78;100.00;50187.88;5134745;27;20035;-71
2022/05/13 00:39:04;;;;;;;3.28;1.48;;;;;;;-149.78;100.00;50197.66;5116296;27;20031;-71
2022/05/13 00:41:30;;;;;;;8.13;1.80;;;;;;;-149.78;100.00;50213.28;5134680;27;20458;-71
2022/05/13 00:43:56;;;;;;;6.65;1.50;;;;;;;-149.78;100.00;50205.47;5116353;27;20530;-71
2022/05/13 00:46:23;;;;;;;3.53;1.77;;;;;;;-149.78;100.00;50185.91;5098940;27;20130;-71
2022/05/13 00:48:49;;;;;;;5.88;2.13;;;;;;;-149.78;100.00;50166.34;5116069;27;20035;-71
2022/05/13 00:51:35;;;;;;;5.53;1.42;;;;;;;-149.78;100.00;50209.38;5134491;27;20035;-71
2022/05/13 00:54:02;;;;;;;7.32;1.75;;;;;;;-149.78;100.00;50232.84;5134332;27;20039;-71
2022/05/13 00:56:27;;;;;;;5.72;1.63;;;;;;;-149.78;100.00;50187.88;5115820;27;20031;-71
2022/05/13 00:58:57;;;;;;;5.20;1.70;;;;;;;-149.78;100.00;50225.03;5115942;27;20030;-71
2022/05/13 01:01:23;;;;;;;6.28;2.17;;;;;;;-149.78;100.00;50166.34;5134200;27;20035;-71
2022/05/13 01:03:50;;;;;;;7.10;1.85;;;;;;;-149.78;100.00;50209.38;5134191;27;20050;-71
2022/05/13 01:06:23;;;;;;;7.50;1.65;;;;;;;-149.78;100.00;50201.56;5115986;27;20459;-71
2022/05/13 01:08:50;;;;;;;6.13;1.92;;;;;;;-149.78;100.00;50236.75;5133900;27;20031;-71
2022/05/13 01:11:22;;;;;;;5.22;1.83;;;;;;;-149.78;100.00;50189.81;5134030;27;20054;-71
2022/05/13 01:13:55;;;;;;;7.60;2.13;;;;;;;-149.78;100.00;50219.16;5134011;27;20035;-71
2022/05/13 01:16:20;;;;;;;6.97;1.65;;;;;;;-149.78;100.00;50215.25;5133756;27;20027;-71
2022/05/13 01:18:46;;;;;;;5.25;2.00;;;;;;;-149.78;100.00;50174.19;5110448;28;20032;-71
2022/05/13 01:21:15;;;;;;;10.07;2.08;;;;;;;-149.78;100.00;50189.81;5095070;28;20032;-71
2022/05/13 01:23:43;;;;;;;10.57;2.10;;;;;;;-149.78;100.00;50205.47;5095572;28;20031;-71
2022/05/13 01:26:13;;;;;;;9.35;2.40;;;;;;;-149.78;100.00;50189.81;5113039;28;20044;-71
2022/05/13 01:28:48;;;;;;;8.48;1.80;;;;;;;-149.78;100.00;50185.91;5113229;28;20031;-71
2022/05/13 01:31:22;;;;;;;11.32;1.92;;;;;;;-149.78;100.00;50232.84;5113098;28;20032;-71
2022/05/13 01:33:48;;;;;;;5.57;1.88;;;;;;;-149.78;100.00;50217.19;5113093;28;20032;-75
2022/05/13 01:36:14;;;;;;;8.02;2.72;;;;;;;-149.78;100.00;50197.66;5078085;28;20134;-75
2022/05/13 01:38:41;;;;;;;9.48;2.20;;;;;;;-149.78;100.00;50197.66;5078185;28;20031;-75
2022/05/13 01:41:08;;;;;;;9.27;2.35;;;;;;;-149.78;100.00;50217.19;5125986;27;20031;-75
2022/05/13 01:43:35;;;;;;;9.90;1.90;;;;;;;-149.78;100.00;50199.59;5114596;28;20046;-75
2022/05/13 01:46:01;;;;;;;4.75;1.92;;;;;;;-149.78;100.00;50211.34;5133263;27;20058;-76
2022/05/13 01:48:28;;;;;;;7.82;1.88;;;;;;;-149.78;100.00;50185.91;5107263;28;20039;-74
2022/05/13 01:50:54;;;;;;;9.45;2.10;;;;;;;-149.78;100.00;50183.97;5133541;27;20028;-75
2022/05/13 01:53:20;;;;;;;5.25;1.75;;;;;;;-149.78;100.00;50189.81;5128575;27;20390;-74
2022/05/13 01:55:46;;;;;;;10.10;2.20;;;;;;;-149.78;100.00;50182.00;5096896;27;20043;-75
2022/05/13 01:58:13;;;;;;;6.05;2.10;;;;;;;-149.78;100.00;50217.19;5125996;27;20039;-75
2022/05/13 02:00:41;;;;;;;8.02;1.92;;;;;;;-149.78;100.00;50187.88;5105904;27;20031;-74
2022/05/13 02:05:52;;;;;;;9.45;2.67;;;;;;;-149.78;100.00;50201.56;5114626;27;20039;-75
2022/05/13 02:08:18;;;;;;;10.60;2.20;;;;;;;-149.78;100.00;50217.19;5133282;28;20042;-75
2022/05/13 02:10:44;;;;;;;8.05;2.22;;;;;;;-149.78;100.00;50205.47;5133191;28;20039;-75
2022/05/13 02:13:11;;;;;;;9.13;2.92;;;;;;;-149.78;100.00;50213.28;5132998;28;20038;-75
2022/05/13 02:15:36;;;;;;;8.25;2.55;;;;;;;-149.78;100.00;50201.56;5114785;28;20449;-74
2022/05/13 02:18:02;;;;;;;7.60;2.92;;;;;;;-149.78;100.00;50217.19;5114768;28;20046;-75
2022/05/13 02:20:28;;;;;;;6.45;2.20;;;;;;;-149.78;100.00;50197.66;5133047;28;20038;-75
2022/05/13 02:22:53;;;;;;;7.60;2.17;;;;;;;-149.78;100.00;50230.88;5133164;28;20031;-75
2022/05/13 02:25:20;;;;;;;11.73;2.60;;;;;;;-149.78;100.00;50193.72;5114722;28;20053;-75
2022/05/13 02:27:46;;;;;;;9.93;2.35;;;;;;;-149.78;100.00;50178.09;5132937;28;20035;-75
2022/05/13 02:30:12;;;;;;;8.60;2.45;;;;;;;-149.78;100.00;50182.00;5133007;28;20043;-75
2022/05/13 02:32:38;;;;;;;7.38;2.13;;;;;;;-149.78;100.00;50154.63;5114587;28;20027;-74
2022/05/13 02:35:04;;;;;;;8.38;2.17;;;;;;;-149.78;100.00;50174.19;5132965;28;20036;-75
2022/05/13 02:37:30;;;;;;;9.13;2.00;;;;;;;-149.78;100.00;50197.66;5133050;28;20055;-75
2022/05/13 02:39:57;;;;;;;13.82;2.45;;;;;;;-149.78;100.00;50174.19;5114780;28;20031;-75
2022/05/13 02:42:22;;;;;;;8.77;2.38;;;;;;;-149.78;100.00;50182.00;5132901;28;20032;-75
2022/05/13 02:44:48;;;;;;;9.63;2.45;;;;;;;-149.78;100.00;50182.00;5114790;28;20470;-75
2022/05/13 02:47:14;;;;;;;8.57;2.42;;;;;;;-149.78;100.00;50213.28;5097426;28;20055;-75
2022/05/13 02:49:40;;;;;;;8.48;2.13;;;;;;;-149.78;100.00;50199.59;5114591;28;20038;-74
2022/05/13 02:52:06;;;;;;;10.93;2.13;;;;;;;-149.78;100.00;50201.56;5097391;28;20057;-75
2022/05/13 02:54:32;;;;;;;7.88;2.38;;;;;;;-149.78;100.00;50213.28;5114536;27;20073;-75
2022/05/13 02:56:58;;;;;;;7.90;2.05;;;;;;;-149.78;100.00;50217.19;5136586;27;20023;-75
2022/05/13 02:59:24;;;;;;;12.52;2.28;;;;;;;-149.78;100.00;50201.56;5093109;27;20039;-74
2022/05/13 03:01:50;;;;;;;8.27;2.15;;;;;;;-149.78;100.00;50174.19;5136240;27;20034;-75
2022/05/13 03:04:16;;;;;;;8.63;2.10;;;;;;;-149.78;100.00;50182.00;5117981;27;20091;-75
2022/05/13 03:06:42;;;;;;;7.63;2.00;;;;;;;-149.78;100.00;50207.44;5118221;27;20130;-74
2022/05/13 03:09:09;;;;;;;11.20;2.40;;;;;;;-149.78;100.00;50176.13;5135768;27;20498;-74
2022/05/13 03:11:36;;;;;;;9.95;2.55;;;;;;;-149.78;100.00;50221.13;5117853;27;20043;-74
2022/05/13 03:14:03;;;;;;;6.20;2.72;;;;;;;-149.78;100.00;50185.91;5118415;27;20091;-74
2022/05/13 03:16:30;;;;;;;6.28;1.95;;;;;;;-149.78;100.00;50185.91;5135819;27;20068;-74
2022/05/13 03:18:58;;;;;;;6.78;2.67;;;;;;;-149.78;100.00;50178.09;5131873;27;20035;-75
2022/05/13 03:21:24;;;;;;;5.82;2.15;;;;;;;-149.78;100.00;50189.81;5118185;27;20035;-75
2022/05/13 03:23:50;;;;;;;7.65;2.80;;;;;;;-149.78;100.00;50174.19;5136332;27;20118;-75
2022/05/13 03:26:18;;;;;;;8.52;2.58;;;;;;;-149.78;100.00;50197.66;5117697;27;20131;-75
2022/05/13 03:28:44;;;;;;;9.73;2.20;;;;;;;-149.78;100.00;50197.66;5131236;27;20102;-74
2022/05/13 03:31:10;;;;;;;9.48;2.60;;;;;;;-149.78;100.00;50185.91;5143229;27;20118;-74
2022/05/13 03:33:35;;;;;;;8.73;2.65;;;;;;;-149.78;100.00;50193.72;5134569;27;20594;-75
2022/05/13 03:36:01;;;;;;;7.55;2.70;;;;;;;-149.78;100.00;50189.81;5149705;27;20027;-75
2022/05/13 03:38:27;;;;;;;9.43;2.28;;;;;;;-149.78;100.00;50205.47;5134830;27;20482;-75
2022/05/13 03:40:53;;;;;;;8.90;2.50;;;;;;;-149.78;100.00;50183.97;5106466;28;20036;-75
2022/05/13 03:43:18;;;;;;;9.25;2.55;;;;;;;-149.78;100.00;50197.66;5115151;28;20039;-74
2022/05/13 03:45:45;;;;;;;7.28;2.70;;;;;;;-149.78;100.00;50185.91;5079787;28;20047;-74
2022/05/13 03:48:13;;;;;;;10.93;2.42;;;;;;;-149.78;100.00;50217.19;5096976;27;20122;-74
2022/05/13 03:50:42;;;;;;;10.80;2.70;;;;;;;-149.78;100.00;50219.16;5135115;27;20058;-74
2022/05/13 03:53:10;;;;;;;6.45;2.30;;;;;;;-149.78;100.00;50205.47;5124101;27;20125;-74
2022/05/13 03:55:36;;;;;;;10.88;2.53;;;;;;;-149.78;100.00;50209.38;5137328;27;20039;-75
2022/05/13 03:58:03;;;;;;;21.20;3.42;;;;;;;-149.78;100.00;50209.38;5156486;27;20402;-74
2022/05/13 04:00:29;;;;;;;11.90;2.88;;;;;;;-149.78;100.00;50189.81;5134005;27;20022;-73
2022/05/13 04:02:55;;;;;;;12.25;2.72;;;;;;;-149.78;100.00;50221.13;5135681;27;20063;-73
2022/05/13 04:10:50;;;;;;;9.25;2.72;;;;;;;-149.78;100.00;50182.00;5135327;27;20031;-74
2022/05/13 04:16:04;;;;;;;10.57;2.60;;;;;;;-149.78;100.00;50197.66;5135110;27;20087;-74
2022/05/13 04:18:45;;;;;;;13.52;2.80;;;;;;;-149.78;100.00;50219.16;5116919;27;20039;-74
2022/05/13 04:21:18;;;;;;;7.55;2.50;;;;;;;-149.78;100.00;50213.28;5135185;27;20114;-74
2022/05/13 04:23:46;;;;;;;7.78;2.70;;;;;;;-149.78;100.00;50205.47;5135354;27;20038;-75
2022/05/13 04:26:13;;;;;;;8.50;3.00;;;;;;;-149.78;100.00;50189.81;5134978;27;20027;-74
2022/05/13 04:28:44;;;;;;;10.23;3.15;;;;;;;-149.78;100.00;50225.03;5135246;27;20038;-76
2022/05/13 04:31:11;;;;;;;17.02;3.97;;;;;;;-149.78;100.00;50205.47;5135159;27;20084;-76
2022/05/13 04:33:38;;;;;;;9.10;2.50;;;;;;;-149.78;100.00;50183.97;5135163;27;20035;-75
2022/05/13 04:36:04;;;;;;;13.00;2.67;;;;;;;-149.78;100.00;50244.59;5116891;27;20449;-75
2022/05/13 04:38:30;;;;;;;12.55;3.10;;;;;;;-149.78;100.00;50217.19;5116786;27;20100;-75
2022/05/13 04:40:56;;;;;;;7.07;2.30;;;;;;;-149.78;100.00;50158.53;5134975;27;20043;-76
2022/05/13 04:43:22;;;;;;;15.25;3.72;;;;;;;-149.78;100.00;50215.25;5116419;27;20035;-74
2022/05/13 04:45:48;;;;;;;10.20;2.65;;;;;;;-149.78;100.00;50201.56;5131676;27;20089;-76
2022/05/13 04:48:16;;;;;;;8.00;2.50;;;;;;;-149.78;100.00;50209.38;5125120;27;20023;-75
2022/05/13 04:51:01;;;;;;;6.03;2.47;;;;;;;-149.78;100.00;50170.25;5130933;27;20027;-75
2022/05/13 04:53:31;;;;;;;9.70;2.60;;;;;;;-149.78;100.00;50221.13;5103524;27;20035;-75
2022/05/13 04:55:59;;;;;;;9.95;2.50;;;;;;;-149.78;100.00;50189.81;5095807;28;20080;-75
2022/05/13 04:58:27;;;;;;;10.93;2.83;;;;;;;-149.78;100.00;50189.81;5128794;27;20385;-75
2022/05/13 05:00:54;;;;;;;11.95;2.72;;;;;;;-149.78;100.00;50182.00;5134480;27;20031;-75
2022/05/13 05:03:22;;;;;;;11.68;3.03;;;;;;;-149.78;100.00;50205.47;5129085;27;20031;-75
2022/05/13 05:05:48;;;;;;;9.45;2.88;;;;;;;-149.78;100.00;50197.66;5098546;28;20045;-75
2022/05/13 05:08:16;;;;;;;13.40;2.60;;;;;;;-149.78;100.00;50201.56;5119513;27;20630;-75
2022/05/13 05:10:44;;;;;;;5.10;2.70;;;;;;;-149.78;100.00;50197.66;5103455;28;20070;-76
2022/05/13 05:13:16;;;;;;;10.82;2.47;;;;;;;-149.78;100.00;50189.81;5110983;27;20027;-76
2022/05/13 05:15:42;;;;;;;12.57;2.70;;;;;;;-149.78;100.00;50197.66;5115982;27;20451;-76
2022/05/13 05:18:08;;;;;;;13.70;2.78;;;;;;;-149.78;100.00;50185.91;5134355;27;20027;-76
2022/05/13 05:20:34;;;;;;;10.25;2.45;;;;;;;-149.78;100.00;50209.38;5134236;27;20023;-74
2022/05/13 05:23:00;;;;;;;7.57;2.80;;;;;;;-149.78;100.00;50183.97;5115897;27;20063;-76
2022/05/13 05:25:28;;;;;;;9.38;2.70;;;;;;;-149.78;100.00;50225.03;5134058;27;20394;-75
2022/05/13 05:27:55;;;;;;;14.77;3.25;;;;;;;-149.78;100.00;50205.47;5116017;27;20031;-75
2022/05/13 05:30:21;;;;;;;11.13;2.53;;;;;;;-149.78;100.00;50197.66;5115818;27;20035;-76
2022/05/13 05:32:48;;;;;;;9.95;2.60;;;;;;;-149.78;100.00;50185.91;5115997;27;20035;-76
2022/05/13 05:35:16;;;;;;;13.95;2.47;;;;;;;-149.78;100.00;50205.47;5115844;27;20390;-76
2022/05/13 05:37:42;;;;;;;14.73;3.00;;;;;;;-149.78;100.00;50219.16;5131117;27;20027;-75
2022/05/13 05:40:09;;;;;;;13.85;3.38;;;;;;;-149.78;100.00;50182.00;5119474;27;20175;-75
2022/05/13 05:42:36;;;;;;;13.90;2.85;;;;;;;-149.78;100.00;50221.13;5094673;28;20410;-73
2022/05/13 05:45:02;;;;;;;9.85;2.92;;;;;;;-149.78;100.00;50225.03;5113047;28;20080;-75
2022/05/13 05:47:29;;;;;;;16.02;2.83;;;;;;;-149.78;100.00;50195.69;5095069;28;20081;-75
2022/05/13 05:49:57;;;;;;;15.07;3.05;;;;;;;-149.78;100.00;50197.66;5095929;27;20051;-75
2022/05/13 05:52:23;;;;;;;13.65;2.60;;;;;;;-149.78;100.00;50182.00;5116697;27;20032;-75
2022/05/13 05:57:35;;;;;;;11.75;3.38;;;;;;;-149.78;100.00;50209.38;5122010;27;20031;-75
2022/05/13 06:00:06;;;;;;;15.82;3.38;;;;;;;-149.78;100.00;50201.56;5104612;28;20031;-76
2022/05/13 06:02:33;;;;;;;12.93;3.28;;;;;;;-149.78;100.00;50176.13;5109942;28;20394;-76
2022/05/13 06:04:58;;;;;;;14.77;3.38;;;;;;;-149.78;100.00;50166.34;5121094;27;20034;-75
2022/05/13 06:07:26;;;;;;;10.70;2.85;;;;;;;-149.78;100.00;50201.56;5109080;27;20479;-75
2022/05/13 06:09:53;;;;;;;9.13;2.67;;;;;;;-149.78;100.00;50225.03;5128921;28;20031;-75
2022/05/13 06:12:19;;;;;;;8.45;2.58;;;;;;;-149.78;100.00;50209.38;5104839;28;20456;-73
2022/05/13 06:14:45;;;;;;;15.15;3.17;;;;;;;-149.78;100.00;50168.31;5110949;28;20031;-74
2022/05/13 06:17:11;;;;;;;8.95;2.90;;;;;;;-149.78;100.00;50207.44;5112973;28;20020;-72
2022/05/13 06:19:37;;;;;;;14.85;2.67;;;;;;;-149.78;100.00;50178.09;5080693;28;20420;-73
2022/05/13 06:22:04;;;;;;;11.90;2.83;;;;;;;-149.78;100.00;50197.66;5097975;28;20051;-72
2022/05/13 06:24:30;;;;;;;13.50;2.95;;;;;;;-149.78;100.00;50217.19;5109459;28;20035;-73
2022/05/13 06:26:56;;;;;;;12.20;2.60;;;;;;;-149.78;100.00;50187.88;5132159;28;20038;-75
2022/05/13 06:29:23;;;;;;;13.80;3.05;;;;;;;-149.78;100.00;50185.91;5114412;27;20476;-72
2022/05/13 06:31:50;;;;;;;13.77;2.67;;;;;;;-149.78;100.00;50228.94;5129571;27;20546;-69
2022/05/13 06:34:15;;;;;;;16.25;2.85;;;;;;;-149.78;100.00;50166.34;5132951;27;20046;-69
2022/05/13 06:36:41;;;;;;;16.13;3.10;;;;;;;-149.78;100.00;50205.47;5106964;28;20024;-71
2022/05/13 06:39:07;;;;;;;11.07;2.80;;;;;;;-149.78;100.00;50205.47;5132408;27;20256;-73
2022/05/13 06:41:37;;;;;;;13.43;3.47;;;;;;;-149.78;100.00;50205.47;5118945;27;20023;-70
2022/05/13 06:44:05;;;;;;;13.60;3.28;;;;;;;-149.78;100.00;50215.25;5136871;27;20139;-75
2022/05/13 06:46:31;;;;;;;17.50;3.38;;;;;;;-149.78;100.00;50211.34;5135908;27;20051;-71
2022/05/13 06:48:58;;;;;;;15.95;3.15;;;;;;;-149.78;100.00;50154.63;5135786;27;20088;-70
2022/05/13 06:51:23;;;;;;;16.98;3.58;;;;;;;-149.78;100.00;50185.91;5129500;27;20039;-70
2022/05/13 06:53:50;;;;;;;20.55;3.53;;;;;;;-149.78;100.00;50189.81;5121204;27;20115;-70
2022/05/13 06:56:16;;;;;;;9.02;2.92;;;;;;;-149.78;100.00;50154.63;5122512;27;20112;-70
2022/05/13 06:58:41;;;;;;;15.30;3.95;;;;;;;-149.78;100.00;50150.72;5129670;27;20054;-70
2022/05/13 07:01:07;;;;;;;13.90;3.05;;;;;;;-149.78;100.00;50189.81;5108167;28;20035;-70
2022/05/13 07:03:33;;;;;;;12.85;3.22;;;;;;;-149.78;100.00;50142.88;5097180;27;20040;-70
2022/05/13 07:05:59;;;;;;;14.25;3.58;;;;;;;-149.78;100.00;50131.16;5077787;28;20059;-72
2022/05/13 07:08:25;;;;;;;11.65;2.97;;;;;;;-149.78;100.00;50170.25;5104640;27;20038;-74
2022/05/13 07:10:50;;;;;;;14.25;3.08;;;;;;;-149.78;100.00;50123.34;5117722;27;20031;-73
2022/05/13 07:13:16;;;;;;;9.63;2.53;;;;;;;-149.78;100.00;50178.09;5107043;27;20522;-73
2022/05/13 07:15:43;;;;;;;14.38;3.47;;;;;;;-149.78;100.00;50158.53;5101433;28;20028;-73
2022/05/13 07:18:10;;;;;;;14.95;3.13;;;;;;;-149.78;100.00;50138.97;5107230;27;20023;-72
2022/05/13 07:20:36;;;;;;;12.48;2.70;;;;;;;-149.78;100.00;50160.50;5129502;27;20089;-72
2022/05/13 07:23:02;;;;;;;13.82;3.17;;;;;;;-149.78;100.00;50119.41;5125913;27;20077;-74
2022/05/13 07:25:31;;;;;;;14.60;3.17;;;;;;;-149.78;100.00;50168.31;5083492;28;20043;-74
2022/05/13 07:27:57;;;;;;;10.65;2.90;;;;;;;-149.78;100.00;50160.50;5126369;27;20080;-73
2022/05/13 07:30:23;;;;;;;15.70;3.30;;;;;;;-149.78;100.00;50142.88;5103309;27;20039;-74
2022/05/13 07:32:49;;;;;;;13.65;3.20;;;;;;;-149.78;100.00;50133.09;5105822;28;20038;-73
2022/05/13 07:35:14;;;;;;;13.25;2.97;;;;;;;-149.78;100.00;50119.41;5088352;27;20034;-74
2022/05/13 07:37:40;;;;;;;9.95;2.92;;;;;;;-149.78;100.00;50140.94;5109743;27;20156;-74
2022/05/13 07:42:51;;;;;;;17.83;3.67;;;;;;;-149.78;100.00;50133.09;5122889;27;20031;-73
2022/05/13 07:45:17;;;;;;;11.15;2.80;;;;;;;-149.78;100.00;50111.59;5115777;27;20075;-73
2022/05/13 07:47:42;;;;;;;17.35;3.20;;;;;;;-149.78;100.00;50162.44;5114874;28;20047;-74
2022/05/13 07:50:10;;;;;;;18.73;2.83;;;;;;;-149.78;100.00;50101.81;5129287;27;20030;-74
2022/05/13 07:52:40;;;;;;;13.68;3.17;;;;;;;-149.78;100.00;50084.22;5120438;27;20031;-73
2022/05/13 07:55:08;;;;;;;10.80;2.72;;;;;;;-149.78;100.00;50146.81;5099419;27;20458;-73
2022/05/13 07:57:40;;;;;;;11.73;2.72;;;;;;;-149.78;100.00;50119.41;5115681;27;20028;-74
2022/05/13 08:00:26;;;;;;;15.38;3.25;;;;;;;-149.78;100.00;50103.78;5108129;27;20216;-74
2022/05/13 08:02:53;;;;;;;15.85;3.00;;;;;;;-149.78;100.00;50152.66;5135463;27;20539;-74
2022/05/13 08:05:20;;;;;;;10.38;3.15;;;;;;;-149.78;100.00;50127.25;5113536;27;20146;-74
2022/05/13 08:07:45;;;;;;;11.00;3.47;;;;;;;-149.78;100.00;50068.56;5122650;27;20126;-74
2022/05/13 08:10:12;;;;;;;13.50;2.90;;;;;;;-149.78;100.00;50095.94;5116392;27;20042;-74
2022/05/13 08:12:37;;;;;;;15.00;3.05;;;;;;;-149.78;100.00;50123.34;5120449;27;20110;-75
2022/05/13 08:15:04;;;;;;;12.05;2.88;;;;;;;-149.78;100.00;50127.25;5096334;28;20043;-74
2022/05/13 08:17:33;;;;;;;15.55;3.30;;;;;;;-149.78;100.00;50117.47;5095557;27;20031;-74
2022/05/13 08:19:59;;;;;;;16.95;3.00;;;;;;;-149.78;100.00;50103.78;5120781;27;20031;-74
2022/05/13 08:22:25;;;;;;;12.35;3.42;;;;;;;-149.78;95.81;50127.25;5096811;27;20035;-74
2022/05/13 08:24:51;;;;;;;14.23;3.20;;;;;;;-149.78;99.38;50086.19;5129061;27;20118;-74
2022/05/13 08:27:17;;;;;;;15.20;3.47;;;;;;;-149.78;100.00;50103.78;5116217;27;20539;-72
2022/05/13 08:29:42;;;;;;;9.07;2.47;;;;;;;-149.78;89.96;50068.56;5119178;27;20555;-73
2022/05/13 08:32:08;;;;;;;13.05;3.35;;;;;;;-149.78;84.17;50107.69;5122187;27;20027;-73
2022/05/13 08:34:34;;;;;;;18.20;3.28;;;;;;;-149.78;80.43;50111.59;5127496;27;20053;-73
2022/05/13 08:37:01;;;;;;;13.77;2.92;;;;;;;-149.78;79.38;50133.09;5099278;28;20047;-73
2022/05/13 08:39:26;;;;;;;8.43;2.40;;;;;;;-149.78;76.32;50103.78;5132027;27;20031;-73
2022/05/13 08:42:15;;;;;;;9.30;2.30;;;;;;;-149.78;75.65;50078.34;5115951;27;20031;-73
2022/05/13 08:44:41;;;;;;;13.32;3.47;;;;;;;-149.78;74.47;50068.56;5105004;27;20035;-73
2022/05/13 08:47:21;;;;;;;16.70;2.97;;;;;;;-149.78;81.64;50092.03;5134078;27;20107;-73
2022/05/13 08:50:04;;;;;;;10.88;3.00;;;;;;;-149.78;80.58;50092.03;5127694;27;20073;-73
2022/05/13 08:53:07;;;;;;;11.88;2.63;;;;;;;-149.78;69.83;50064.66;5097254;27;20216;-73
2022/05/13 08:55:56;;;;;;;6.70;2.55;;;;;;;-149.78;65.65;50056.84;5111160;27;20406;-73
2022/05/13 08:58:27;;;;;;;13.20;2.97;;;;;;;-149.78;71.34;50076.41;5115468;27;20097;-73
2022/05/13 09:00:55;;;;;;;11.20;2.90;;;;;;;-149.78;72.81;50039.25;5103108;27;20060;-73
2022/05/13 09:03:30;;;;;;;12.27;2.72;;;;;;;-149.78;71.67;50092.03;5114511;27;20271;-73
2022/05/13 09:05:55;;;;;;;9.95;3.10;;;;;;;-149.78;70.52;50084.22;5129889;27;20050;-73
2022/05/13 09:08:22;;;;;;;12.82;2.85;;;;;;;-149.78;68.70;50068.56;5127123;27;20478;-73
2022/05/13 09:11:06;;;;;;;16.25;2.80;;;;;;;-149.78;69.07;50064.66;5129295;27;20034;-74
2022/05/13 09:13:44;;;;;;;10.35;3.17;;;;;;;-149.78;76.80;50072.50;5127466;27;20034;-74
2022/05/13 09:16:10;;;;;;;12.05;3.10;;;;;;;-149.78;78.97;50088.13;5095199;28;20518;-74
2022/05/13 09:18:50;;;;;;;10.18;2.80;;;;;;;-149.78;71.04;50076.41;5105496;28;20043;-74
2022/05/13 09:21:19;;;;;;;12.98;2.72;;;;;;;-149.78;70.30;50084.22;5127258;27;20142;-74
2022/05/13 09:23:46;;;;;;;11.95;2.80;;;;;;;-149.78;69.97;50088.13;5122525;27;20034;-74
2022/05/13 09:26:13;;;;;;;14.23;3.58;;;;;;;-149.78;69.92;50084.22;5079865;27;20398;-72
2022/05/13 09:29:04;;;;;;;12.10;2.70;;;;;;;-149.78;67.92;50052.94;5119095;27;20049;-74
2022/05/13 09:31:32;;;;;;;12.45;2.75;;;;;;;-149.78;69.67;50078.34;5112222;28;20115;-72
2022/05/13 09:33:58;;;;;;;14.90;3.28;;;;;;;-149.78;74.03;50088.13;5112709;28;20106;-71
2022/05/13 09:36:26;;;;;;;15.27;2.78;;;;;;;-149.78;69.33;50049.03;5094826;28;20043;-71
2022/05/13 09:38:59;;;;;;;12.77;3.22;;;;;;;-149.78;67.80;50045.09;5108268;27;20038;-71
2022/05/13 09:41:24;;;;;;;9.38;3.75;;;;;;;-149.78;71.34;50064.66;5115015;27;20022;-71
2022/05/13 09:44:10;;;;;;;18.48;3.15;;;;;;;-149.78;75.22;50099.88;5133309;27;20462;-71
2022/05/13 09:46:41;;;;;;;14.45;3.13;;;;;;;-149.78;75.38;50107.69;5114601;27;20199;-72
2022/05/13 09:49:26;;;;;;;12.10;3.33;;;;;;;-149.78;76.77;50084.22;5133270;27;20030;-73
2022/05/13 09:51:53;;;;;;;18.92;3.70;;;;;;;-149.78;77.93;50049.03;5133392;27;20522;-72
2022/05/13 09:54:33;;;;;;;14.50;2.88;;;;;;;-149.78;76.37;50056.84;5114511;27;20466;-72
2022/05/13 09:57:20;;;;;;;12.23;2.75;;;;;;;-149.78;80.64;50074.44;5132940;27;20030;-72
2022/05/13 09:59:53;;;;;;;16.27;3.67;;;;;;;-149.78;79.44;50092.03;5132939;27;20049;-72
2022/05/13 10:02:43;;;;;;;13.60;3.10;;;;;;;-149.78;80.51;50099.88;5115116;27;20474;-73
2022/05/13 10:05:23;;;;;;;15.02;3.40;;;;;;;-149.78;83.33;50064.66;5113892;28;20035;-73
2022/05/13 10:08:09;;;;;;;14.00;3.05;;;;;;;-149.78;83.54;50072.50;5114139;27;20027;-73
2022/05/13 10:16:14;;;;;;;9.43;3.08;;;;;;;-149.78;82.54;50103.78;5112154;28;20467;-72
2022/05/13 10:18:55;;;;;;;15.13;2.92;;;;;;;-149.78;80.21;50088.13;5112354;28;20038;-72
2022/05/13 10:21:31;;;;;;;11.25;3.17;;;;;;;-149.78;79.09;50084.22;5112300;28;20032;-72
2022/05/13 10:24:21;;;;;;;12.30;3.33;;;;;;;-149.78;82.86;50084.22;5112269;28;20194;-72
2022/05/13 10:26:49;;;;;;;12.90;3.33;;;;;;;-149.78;82.20;50131.16;5115347;28;20079;-72
2022/05/13 10:29:37;;;;;;;18.83;2.97;;;;;;;-149.78;79.84;50086.19;5132716;28;20039;-72
2022/05/13 10:32:26;;;;;;;13.65;3.33;;;;;;;-149.78;79.71;50054.88;5132931;28;20112;-74
2022/05/13 10:34:55;;;;;;;15.63;4.10;;;;;;;-149.78;78.43;50062.72;5132823;28;20505;-73
2022/05/13 10:37:36;;;;;;;12.88;2.92;;;;;;;-149.78;74.82;50095.94;5114409;28;20041;-73
2022/05/13 10:40:03;;;;;;;11.88;2.97;;;;;;;-149.78;74.60;50103.78;5132604;28;20027;-73
2022/05/13 10:42:39;;;;;;;14.32;3.20;;;;;;;-149.78;75.38;50037.28;5110635;28;20031;-73
2022/05/13 10:45:20;;;;;;;14.60;3.00;;;;;;;-149.78;74.35;50056.84;5123365;28;20031;-76
2022/05/13 10:48:03;;;;;;;10.82;3.10;;;;;;;-149.78;72.35;50119.41;5116654;28;20039;-73
2022/05/13 10:50:56;;;;;;;15.27;3.30;;;;;;;-149.78;74.32;50029.47;5098767;28;20052;-71
2022/05/13 10:53:46;;;;;;;12.10;2.75;;;;;;;-149.78;75.36;50080.31;5119704;28;20050;-72
2022/05/13 10:56:36;;;;;;;13.07;2.72;;;;;;;-149.78;75.68;50054.88;5093810;28;20106;-72
2022/05/13 10:59:23;;;;;;;13.88;3.00;;;;;;;-149.78;74.34;50095.94;5111728;28;20688;-72
2022/05/13 11:02:13;;;;;;;11.93;3.00;;;;;;;-149.78;71.11;50084.22;5076873;28;20076;-73
2022/05/13 11:04:58;;;;;;;17.48;3.95;;;;;;;-149.78;68.68;50082.25;5111901;28;20106;-73
2022/05/13 11:07:33;;;;;;;13.43;2.88;;;;;;;-149.78;72.15;50099.88;5097281;27;20107;-73
2022/05/13 11:10:17;;;;;;;13.15;2.80;;;;;;;-149.78;78.02;50052.94;5132352;28;20027;-72
2022/05/13 11:12:46;;;;;;;11.65;2.72;;;;;;;-149.78;74.22;50095.94;5132356;28;20194;-72
2022/05/13 11:15:23;;;;;;;10.10;3.05;;;;;;;-149.78;69.59;50088.13;5106789;28;20368;-72
2022/05/13 11:18:26;;;;;;;9.05;2.65;;;;;;;-149.78;69.25;50052.94;5099091;27;20024;-72
2022/05/13 11:21:10;;;;;;;10.52;2.78;;;;;;;-149.78;66.43;50088.13;5125915;27;20034;-71
2022/05/13 11:23:43;;;;;;;11.30;3.30;;;;;;;-149.78;64.53;50060.75;5122789;27;20083;-71
2022/05/13 11:26:25;;;;;;;12.00;2.57;;;;;;;-149.78;66.45;50060.75;5119602;27;20035;-71
2022/05/13 11:29:01;;;;;;;8.23;2.60;;;;;;;-149.78;64.33;50037.28;5084885;28;20080;-72
2022/05/13 11:31:48;;;;;;;10.45;3.08;;;;;;;-149.78;64.43;50060.75;5122544;27;20027;-72
2022/05/13 11:34:41;;;;;;;13.18;2.63;;;;;;;-149.78;63.96;50049.03;5099721;27;20055;-72
2022/05/13 11:37:12;;;;;;;17.55;3.55;;;;;;;-149.78;63.53;50076.41;5101900;27;20027;-72
2022/05/13 11:39:40;;;;;;;9.93;2.63;;;;;;;-149.78;61.64;50076.41;5106038;27;20039;-71
2022/05/13 11:42:15;;;;;;;14.93;2.85;;;;;;;-149.78;62.50;50029.47;5122037;27;20439;-72
2022/05/13 11:44:50;;;;;;;13.75;3.45;;;;;;;-149.78;63.89;50092.03;5093622;27;20401;-71